Time;durP1;ratioP1;P1;durP2;ratioP2;P2;SDS_P1;SDS_P2;PMS_P1;PMS_P2;Temp;Humidity;BMP_temperature;BMP_pressure;BME280_temperature;BME280_humidity;BME280_pressure;Samples;Min_cycle;Max_cycle;Signal;HPM_P1;HPM_P2
2023/01/02 00:00:28;;;;;;;;;2.00;2.00;;;;;-146.50;100.00;59256.41;5092075;27;45513;-78
2023/01/02 00:02:53;;;;;;;;;4.00;4.00;;;;;-146.50;100.00;59256.41;5065773;27;45541;-78
2023/01/02 00:05:19;;;;;;;;;4.75;3.75;;;;;-146.50;100.00;59256.41;5072616;27;45457;-76
2023/01/02 00:07:44;;;;;;;;;2.00;2.00;;;;;-146.50;100.00;59256.41;5101341;27;45563;-75
2023/01/02 00:10:10;;;;;;;;;4.00;4.00;;;;;-146.50;100.00;59256.41;5080072;27;45416;-75
2023/01/02 00:12:35;;;;;;;;;4.00;3.00;;;;;-146.50;100.00;59256.41;5090735;27;45405;-76
2023/01/02 00:15:01;;;;;;;;;2.33;1.33;;;;;-146.50;100.00;59256.41;5079704;27;45415;-76
2023/01/02 00:17:27;;;;;;;;;2.67;2.67;;;;;-146.50;100.00;59256.41;5087262;27;45405;-78
2023/01/02 00:19:53;;;;;;;;;2.00;2.00;;;;;-146.50;100.00;59256.41;5086665;27;45460;-76
2023/01/02 00:22:18;;;;;;;;;1.67;1.67;;;;;-146.50;100.00;59256.41;5073726;27;45393;-76
2023/01/02 00:24:43;;;;;;;;;7.00;4.33;;;;;-146.50;100.00;59256.41;5076588;27;47614;-77
2023/01/02 00:27:09;;;;;;;;;4.00;4.00;;;;;-146.50;100.00;59256.41;5089293;27;46136;-75
2023/01/02 00:29:34;;;;;;;;;3.33;1.00;;;;;-146.50;100.00;59256.41;5076474;27;46224;-75
2023/01/02 00:31:59;;;;;;;;;1.00;1.00;;;;;-146.50;100.00;59256.41;5087411;27;45355;-76
2023/01/02 00:34:25;;;;;;;;;2.33;2.33;;;;;-146.50;100.00;59256.41;5076579;27;45746;-76
2023/01/02 00:36:50;;;;;;;;;2.33;1.00;;;;;-146.50;100.00;59256.41;5077406;27;45453;-76
2023/01/02 00:39:16;;;;;;;;;2.00;2.00;;;;;-146.50;100.00;59256.41;5079585;27;45751;-76
2023/01/02 00:41:42;;;;;;;;;1.00;1.00;;;;;-146.50;100.00;59256.41;5077907;27;45460;-76
2023/01/02 00:44:07;;;;;;;;;1.67;1.00;;;;;-146.50;100.00;59256.41;5081483;27;46220;-78
2023/01/02 00:46:32;;;;;;;;;0.00;0.00;;;;;-146.50;100.00;59256.41;5075598;27;45488;-78
2023/01/02 00:48:58;;;;;;;;;0.00;0.00;;;;;-146.50;100.00;59256.41;5089992;27;45476;-77
2023/01/02 00:51:23;;;;;;;;;1.00;0.00;;;;;-146.50;100.00;59256.41;5074854;27;45552;-76
2023/01/02 00:53:49;;;;;;;;;1.00;1.00;;;;;-146.50;100.00;59256.41;5085933;27;45482;-76
2023/01/02 00:56:14;;;;;;;;;1.00;1.00;;;;;-146.50;100.00;59256.41;5080004;27;45342;-76
2023/01/02 00:58:39;;;;;;;;;1.00;1.00;;;;;-146.50;100.00;59256.41;5075928;27;45533;-77
2023/01/02 01:01:05;;;;;;;;;0.00;0.00;;;;;-146.50;100.00;59256.41;5089826;27;45660;-78
2023/01/02 01:03:30;;;;;;;;;3.00;2.00;;;;;-146.50;100.00;59256.41;5079131;27;45420;-77
2023/01/02 01:05:56;;;;;;;;;1.67;1.67;;;;;-146.50;100.00;59256.41;5084240;27;45449;-77
2023/01/02 01:08:21;;;;;;;;;0.67;0.67;;;;;-146.50;100.00;59256.41;5077765;27;45906;-77
2023/01/02 01:10:47;;;;;;;;;2.00;2.00;;;;;-146.50;100.00;59256.41;5089643;27;45486;-78
2023/01/02 01:13:12;;;;;;;;;0.00;0.00;;;;;-146.50;100.00;59256.41;5078533;27;45452;-77
2023/01/02 01:15:37;;;;;;;;;1.00;1.00;;;;;-146.50;100.00;59256.41;5074815;27;45386;-76
2023/01/02 01:18:03;;;;;;;;;1.33;1.33;;;;;-146.50;100.00;59256.41;5074860;27;45788;-79
2023/01/02 01:20:28;;;;;;;;;3.00;1.33;;;;;-146.50;100.00;59256.41;5073352;27;45415;-78
2023/01/02 01:22:53;;;;;;;;;1.00;1.00;;;;;-146.50;100.00;59256.41;5074561;27;45444;-76
2023/01/02 01:25:19;;;;;;;;;0.33;0.33;;;;;-146.50;100.00;59256.41;5074609;27;45528;-78
2023/01/02 01:27:44;;;;;;;;;1.00;1.00;;;;;-146.50;100.00;59256.41;5074606;28;45495;-77
2023/01/02 01:30:10;;;;;;;;;1.67;1.00;;;;;-146.50;100.00;59256.41;5074569;28;45455;-78
2023/01/02 01:32:36;;;;;;;;;0.50;0.50;;;;;-146.50;100.00;59256.41;5074611;27;45418;-78
2023/01/02 01:35:01;;;;;;;;;1.00;0.00;;;;;-146.50;100.00;59256.41;5074373;27;45367;-77
2023/01/02 01:37:26;;;;;;;;;2.00;1.25;;;;;-146.50;100.00;59256.41;5074694;27;45339;-77
2023/01/02 01:39:52;;;;;;;;;1.00;1.00;;;;;-146.50;100.00;59256.41;5072823;28;45550;-77
2023/01/02 01:42:17;;;;;;;;;1.00;1.00;;;;;-146.50;100.00;59256.41;5074284;27;45457;-78
2023/01/02 01:44:53;;;;;;;;;1.00;1.00;;;;;-146.50;100.00;59256.41;5074013;27;45567;-78
2023/01/02 01:47:41;;;;;;;;;0.67;0.00;;;;;-146.50;100.00;59256.41;5074107;27;45498;-78
2023/01/02 01:50:18;;;;;;;;;3.00;2.00;;;;;-146.50;100.00;59256.41;5074501;28;45378;-79
2023/01/02 01:52:49;;;;;;;;;1.00;1.00;;;;;-146.50;100.00;59256.41;5056208;28;48125;-79
2023/01/02 01:55:20;;;;;;;;;1.00;1.00;;;;;-146.50;100.00;59256.41;5072397;28;45397;-78
2023/01/02 01:57:51;;;;;;;;;1.00;0.00;;;;;-146.50;100.00;59256.41;5074246;27;45374;-78
2023/01/02 02:00:16;;;;;;;;;1.00;1.00;;;;;-146.50;100.00;59256.41;5073869;27;45314;-78
2023/01/02 02:02:46;;;;;;;;;0.00;0.00;;;;;-146.50;100.00;59256.41;5073673;28;45486;-79
2023/01/02 02:05:16;;;;;;;;;0.33;0.33;;;;;-146.50;100.00;59256.41;5073859;27;45480;-79
2023/01/02 02:07:49;;;;;;;;;1.33;0.33;;;;;-146.50;100.00;59256.41;5074049;27;45398;-79
2023/01/02 02:10:15;;;;;;;;;1.00;1.00;;;;;-146.50;100.00;59256.41;5074208;27;45548;-79
2023/01/02 02:12:40;;;;;;;;;2.00;1.00;;;;;-146.50;100.00;59256.41;5076076;27;45940;-76
2023/01/02 02:15:19;;;;;;;;;2.33;1.00;;;;;-146.50;100.00;59256.41;5073368;27;45321;-77
2023/01/02 02:18:02;;;;;;;;;1.00;0.00;;;;;-146.50;100.00;59256.41;5071908;28;45450;-77
2023/01/02 02:20:42;;;;;;;;;2.00;1.00;;;;;-146.50;100.00;59256.41;5073638;28;45397;-77
2023/01/02 02:23:29;;;;;;;;;1.00;1.00;;;;;-146.50;100.00;59256.41;5073307;28;46482;-77
2023/01/02 02:26:12;;;;;;;;;1.00;1.00;;;;;-146.50;100.00;59256.41;5073270;27;45420;-76
2023/01/02 02:28:49;;;;;;;;;0.00;0.00;;;;;-146.50;100.00;59256.41;5073944;27;45413;-77
2023/01/02 02:31:46;;;;;;;;;0.00;0.00;;;;;-146.50;100.00;59256.41;5073546;27;45561;-77
2023/01/02 02:34:18;;;;;;;;;0.67;0.67;;;;;-146.50;100.00;59256.41;5073419;28;46405;-77
2023/01/02 02:37:06;;;;;;;;;1.00;1.00;;;;;-146.50;100.00;59256.41;5072298;28;45429;-77
2023/01/02 02:39:53;;;;;;;;;0.00;0.00;;;;;-146.50;100.00;59256.41;5064821;28;45463;-75
2023/01/02 02:42:28;;;;;;;;;0.00;0.00;;;;;-146.50;100.00;59256.41;5073919;27;45583;-75
2023/01/02 02:45:02;;;;;;;;;0.00;0.00;;;;;-146.50;100.00;59256.41;5073564;27;45404;-76
2023/01/02 02:47:54;;;;;;;;;0.67;0.00;;;;;-146.50;100.00;59256.41;5073431;28;45625;-77
2023/01/02 02:50:41;;;;;;;;;0.00;0.00;;;;;-146.50;100.00;59256.41;5073617;28;45444;-75
2023/01/02 02:53:15;;;;;;;;;0.00;0.00;;;;;-146.50;100.00;59256.41;5072704;28;45515;-76
2023/01/02 02:55:44;;;;;;;;;0.00;0.00;;;;;-146.50;100.00;59256.41;5073615;27;45437;-76
2023/01/02 02:58:12;;;;;;;;;0.00;0.00;;;;;-146.50;100.00;59256.41;5073829;27;45501;-76
2023/01/02 03:00:38;;;;;;;;;1.00;0.00;;;;;-146.50;100.00;59256.41;5074029;27;45572;-76
2023/01/02 03:03:23;;;;;;;;;0.00;0.00;;;;;-146.50;100.00;59256.41;5074269;27;45434;-76
2023/01/02 03:06:21;;;;;;;;;1.00;0.00;;;;;-146.50;100.00;59256.41;5073535;27;45394;-76
2023/01/02 03:09:07;;;;;;;;;0.00;0.00;;;;;-146.50;100.00;59256.41;5073079;27;45505;-77
2023/01/02 03:12:06;;;;;;;;;0.00;0.00;;;;;-146.50;100.00;59256.41;5073240;28;45382;-77
2023/01/02 03:14:50;;;;;;;;;0.00;0.00;;;;;-146.50;100.00;59256.41;5072977;28;45382;-77
2023/01/02 03:17:35;;;;;;;;;0.00;0.00;;;;;-146.50;100.00;59256.41;5073087;28;47118;-77
2023/01/02 03:20:14;;;;;;;;;0.00;0.00;;;;;-146.50;100.00;59256.41;5073119;27;45592;-77
2023/01/02 03:22:47;;;;;;;;;0.00;0.00;;;;;-146.50;100.00;59256.41;5074042;27;45783;-77
2023/01/02 03:25:14;;;;;;;;;0.00;0.00;;;;;-146.50;100.00;59256.41;5073151;28;45497;-76
2023/01/02 03:27:43;;;;;;;;;0.00;0.00;;;;;-146.50;100.00;59256.41;5074248;27;45376;-77
2023/01/02 03:30:17;;;;;;;;;0.00;0.00;;;;;-146.50;100.00;59256.41;5076476;27;45383;-76
2023/01/02 03:33:02;;;;;;;;;0.00;0.00;;;;;-146.50;100.00;59256.41;5076668;27;45441;-76
2023/01/02 03:35:35;;;;;;;;;1.00;0.00;;;;;-146.50;100.00;59256.41;5076865;27;45596;-77
2023/01/02 03:38:04;;;;;;;;;0.00;0.00;;;;;-146.50;100.00;59256.41;5076185;27;45315;-77
2023/01/02 03:40:39;;;;;;;;;0.00;0.00;;;;;-146.50;100.00;59256.41;5076498;27;45523;-77
2023/01/02 03:43:10;;;;;;;;;0.00;0.00;;;;;-146.50;100.00;59256.41;5076019;27;45443;-77
2023/01/02 03:45:41;;;;;;;;;0.00;0.00;;;;;-146.50;100.00;59256.41;5076325;28;45454;-76
2023/01/02 03:48:15;;;;;;;;;0.00;0.00;;;;;-146.50;100.00;59256.41;5076151;28;46385;-77
2023/01/02 03:50:49;;;;;;;;;1.00;0.00;;;;;-146.50;100.00;59256.41;5075851;28;45461;-77
2023/01/02 03:53:14;;;;;;;;;0.00;0.00;;;;;-146.50;100.00;59256.41;5078804;27;45908;-78
2023/01/02 03:55:47;;;;;;;;;0.00;0.00;;;;;-146.50;100.00;59256.41;5076051;27;45419;-78
2023/01/02 03:58:22;;;;;;;;;0.00;0.00;;;;;-146.50;100.00;59256.41;5076031;27;45459;-76
2023/01/02 04:01:03;;;;;;;;;0.00;0.00;;;;;-146.50;100.00;59256.41;5074723;28;45406;-77
2023/01/02 04:03:46;;;;;;;;;0.00;0.00;;;;;-146.50;100.00;59256.41;5074894;28;45438;-78
2023/01/02 04:06:15;;;;;;;;;0.00;0.00;;;;;-146.50;100.00;59256.41;5076087;28;45554;-77
2023/01/02 04:08:48;;;;;;;;;0.00;0.00;;;;;-146.50;100.00;59256.41;5075881;27;46177;-78
2023/01/02 04:11:17;;;;;;;;;0.00;0.00;;;;;-146.50;100.00;59256.41;5075260;28;45485;-78
2023/01/02 04:13:48;;;;;;;;;0.00;0.00;;;;;-146.50;100.00;59256.41;5075513;27;45420;-78
2023/01/02 04:16:19;;;;;;;;;0.00;0.00;;;;;-146.50;100.00;59256.41;5075830;28;45434;-78
2023/01/02 04:18:59;;;;;;;;;0.00;0.00;;;;;-146.50;100.00;59256.41;5075394;27;45362;-78
2023/01/02 04:21:31;;;;;;;;;1.00;0.00;;;;;-146.50;100.00;59256.41;5075402;27;45499;-77
2023/01/02 04:24:20;;;;;;;;;0.00;0.00;;;;;-146.50;100.00;59256.41;5072219;27;45566;-79
2023/01/02 04:26:53;;;;;;;;;0.00;0.00;;;;;-146.50;100.00;59256.41;5075943;27;45533;-78
2023/01/02 04:29:18;;;;;;;;;0.00;0.00;;;;;-146.50;100.00;59256.41;5075482;27;46372;-78
2023/01/02 04:31:51;;;;;;;;;0.00;0.00;;;;;-146.50;100.00;59256.41;5075918;27;45399;-77
2023/01/02 04:34:19;;;;;;;;;0.00;0.00;;;;;-146.50;100.00;59256.41;5075943;27;45556;-78
2023/01/02 04:36:45;;;;;;;;;0.00;0.00;;;;;-146.50;100.00;59256.41;5075515;27;45482;-78
2023/01/02 04:39:10;;;;;;;;;0.00;0.00;;;;;-146.50;100.00;59256.41;5074323;27;47089;-78
2023/01/02 04:41:39;;;;;;;;;0.33;0.00;;;;;-146.50;100.00;59256.41;5075534;27;45371;-79
2023/01/02 04:44:04;;;;;;;;;0.00;0.00;;;;;-146.50;100.00;59256.41;5091108;27;45505;-78
2023/01/02 04:46:30;;;;;;;;;0.00;0.00;;;;;-146.50;100.00;59256.41;5075246;27;45449;-79
2023/01/02 04:48:56;;;;;;;;;0.00;0.00;;;;;-146.50;100.00;59256.41;5075210;28;46102;-78
2023/01/02 04:51:22;;;;;;;;;0.00;0.00;;;;;-146.50;100.00;59256.41;5075415;28;45411;-78
2023/01/02 04:53:53;;;;;;;;;0.00;0.00;;;;;-146.50;100.00;59256.41;5075619;28;45445;-78
2023/01/02 04:56:19;;;;;;;;;0.00;0.00;;;;;-146.50;100.00;59256.41;5075227;28;45424;-79
2023/01/02 04:58:45;;;;;;;;;1.00;0.00;;;;;-146.50;100.00;59256.41;5075085;28;46026;-79
2023/01/02 05:01:13;;;;;;;;;0.00;0.00;;;;;-146.50;100.00;59256.41;5075193;28;45713;-78
2023/01/02 05:03:43;;;;;;;;;0.00;0.00;;;;;-146.50;100.00;59256.41;5074979;27;45518;-79
2023/01/02 05:06:08;;;;;;;;;0.00;0.00;;;;;-146.50;100.00;59256.41;5075185;27;45680;-78
2023/01/02 05:08:35;;;;;;;;;0.00;0.00;;;;;-146.50;100.00;59256.41;5074721;27;46128;-79
2023/01/02 05:11:10;;;;;;;;;0.00;0.00;;;;;-146.50;100.00;59256.41;5074884;27;45421;-79
2023/01/02 05:13:36;;;;;;;;;0.00;0.00;;;;;-146.50;100.00;59256.41;5074805;27;45564;-79
2023/01/02 05:16:02;;;;;;;;;0.00;0.00;;;;;-146.50;100.00;59256.41;5075175;28;45429;-78
2023/01/02 05:18:28;;;;;;;;;0.00;0.00;;;;;-146.50;100.00;59256.41;5074388;27;46192;-78
2023/01/02 05:21:02;;;;;;;;;0.00;0.00;;;;;-146.50;100.00;59256.41;5074874;28;45476;-78
2023/01/02 05:26:12;;;;;;;;;0.67;0.00;;;;;-146.50;100.00;59256.41;5074862;28;45401;-78
2023/01/02 05:28:38;;;;;;;;;0.00;0.00;;;;;-146.50;100.00;59256.41;5074581;28;45380;-78
2023/01/02 05:31:03;;;;;;;;;0.00;0.00;;;;;-146.50;100.00;59256.41;5074452;27;45351;-78
2023/01/02 05:33:29;;;;;;;;;0.00;0.00;;;;;-146.50;100.00;59256.41;5074518;27;45649;-79
2023/01/02 05:35:54;;;;;;;;;0.00;0.00;;;;;-146.50;100.00;59256.41;5074648;27;45647;-79
2023/01/02 05:38:19;;;;;;;;;0.00;0.00;;;;;-146.50;100.00;59256.41;5074603;27;45515;-78
2023/01/02 05:40:45;;;;;;;;;0.00;0.00;;;;;-146.50;100.00;59256.41;5074817;27;45639;-79
2023/01/02 05:43:10;;;;;;;;;0.00;0.00;;;;;-146.50;100.00;59256.41;5074440;27;45330;-79
2023/01/02 05:45:35;;;;;;;;;0.00;0.00;;;;;-146.50;100.00;59256.41;5074536;27;45532;-79
2023/01/02 05:48:01;;;;;;;;;0.00;0.00;;;;;-146.50;100.00;59256.41;5072769;28;45572;-81
2023/01/02 05:50:26;;;;;;;;;0.00;0.00;;;;;-146.50;100.00;59256.41;5074200;28;45349;-80
2023/01/02 05:52:51;;;;;;;;;0.00;0.00;;;;;-146.50;100.00;59256.41;5074795;28;45325;-81
2023/01/02 05:55:17;;;;;;;;;0.00;0.00;;;;;-146.50;100.00;59256.41;5074165;28;45533;-80
2023/01/02 05:57:42;;;;;;;;;0.00;0.00;;;;;-146.50;100.00;59256.41;5074151;27;45465;-80
2023/01/02 06:00:08;;;;;;;;;0.00;0.00;;;;;-146.50;100.00;59256.41;5073106;28;45667;-80
2023/01/02 06:02:33;;;;;;;;;0.00;0.00;;;;;-146.50;100.00;59256.41;5074320;27;45952;-79
2023/01/02 06:04:59;;;;;;;;;0.00;0.00;;;;;-146.50;100.00;59256.41;5089839;27;45666;-80
2023/01/02 06:07:24;;;;;;;;;0.00;0.00;;;;;-146.50;100.00;59256.41;5073899;27;46296;-80
2023/01/02 06:09:49;;;;;;;;;1.00;0.00;;;;;-146.50;100.00;59256.41;5073919;27;45518;-78
2023/01/02 06:12:15;;;;;;;;;0.00;0.00;;;;;-146.50;100.00;59256.41;5074006;27;45417;-77
2023/01/02 06:14:40;;;;;;;;;0.00;0.00;;;;;-146.50;100.00;59256.41;5073550;28;45557;-77
2023/01/02 06:17:05;;;;;;;;;0.00;0.00;;;;;-146.50;100.00;59256.41;5073515;27;45754;-79
2023/01/02 06:19:31;;;;;;;;;2.00;1.00;;;;;-146.50;100.00;59256.41;5071996;28;45790;-77
2023/01/02 06:21:56;;;;;;;;;0.00;0.00;;;;;-146.50;100.00;59256.41;5073372;27;45468;-78
2023/01/02 06:24:21;;;;;;;;;0.00;0.00;;;;;-146.50;100.00;59256.41;5071953;28;45496;-78
2023/01/02 06:26:47;;;;;;;;;1.00;0.00;;;;;-146.50;100.00;59256.41;5073430;27;45681;-78
2023/01/02 06:29:12;;;;;;;;;0.00;0.00;;;;;-146.50;100.00;59256.41;5073488;27;45402;-78
2023/01/02 06:31:38;;;;;;;;;0.00;0.00;;;;;-146.50;100.00;59256.41;5055036;28;45634;-78
2023/01/02 06:34:03;;;;;;;;;1.33;0.00;;;;;-146.50;100.00;59256.41;5073810;27;45614;-77
2023/01/02 06:36:31;;;;;;;;;0.00;0.00;;;;;-146.50;100.00;59256.41;5073377;27;45461;-77
2023/01/02 06:38:57;;;;;;;;;0.00;0.00;;;;;-146.50;100.00;59256.41;5073609;28;46284;-75
2023/01/02 06:41:22;;;;;;;;;1.00;0.00;;;;;-146.50;100.00;59256.41;5073915;27;45635;-75
2023/01/02 06:43:50;;;;;;;;;0.00;0.00;;;;;-146.50;100.00;59256.41;5074482;28;45500;-76
2023/01/02 06:46:17;;;;;;;;;1.00;1.00;;;;;-146.50;100.00;59256.41;5074369;28;46624;-76
2023/01/02 06:48:44;;;;;;;;;0.00;0.00;;;;;-146.50;100.00;59256.41;5074518;27;45426;-76
2023/01/02 06:51:15;;;;;;;;;0.00;0.00;;;;;-146.50;100.00;59256.41;5072784;28;45436;-77
2023/01/02 06:53:42;;;;;;;;;0.00;0.00;;;;;-146.50;100.00;59256.41;5073062;27;45565;-76
2023/01/02 06:56:09;;;;;;;;;0.00;0.00;;;;;-146.50;100.00;59256.41;5072860;27;46127;-77
2023/01/02 06:58:36;;;;;;;;;0.00;0.00;;;;;-146.50;100.00;59256.41;5072662;28;45469;-76
2023/01/02 07:01:03;;;;;;;;;1.00;0.00;;;;;-146.50;100.00;59256.41;5072160;27;46527;-76
2023/01/02 07:03:29;;;;;;;;;0.00;0.00;;;;;-146.50;100.00;59256.41;5067887;27;45598;-77
2023/01/02 07:06:03;;;;;;;;;0.00;0.00;;;;;-146.50;100.00;59256.41;5072394;27;47249;-77
2023/01/02 07:08:29;;;;;;;;;0.00;0.00;;;;;-146.50;100.00;59256.41;5071994;27;45403;-75
2023/01/02 07:11:04;;;;;;;;;0.00;0.00;;;;;-146.50;100.00;59256.41;5072450;27;45479;-77
2023/01/02 07:13:29;;;;;;;;;0.00;0.00;;;;;-146.50;100.00;59256.41;5070619;28;45824;-79
2023/01/02 07:15:54;;;;;;;;;0.00;0.00;;;;;-146.50;100.00;59256.41;5071949;28;46056;-79
2023/01/02 07:18:20;;;;;;;;;0.00;0.00;;;;;-146.50;100.00;59256.41;5072373;28;45544;-79
2023/01/02 07:20:52;;;;;;;;;0.00;0.00;;;;;-146.50;100.00;59256.41;5071307;28;45821;-79
2023/01/02 07:23:17;;;;;;;;;0.00;0.00;;;;;-146.50;100.00;59256.41;5070779;28;45361;-79
2023/01/02 07:25:43;;;;;;;;;0.00;0.00;;;;;-146.50;100.00;59256.41;5070903;28;46487;-79
2023/01/02 07:28:08;;;;;;;;;0.00;0.00;;;;;-146.50;100.00;59256.41;5072052;28;45412;-79
2023/01/02 07:30:33;;;;;;;;;0.00;0.00;;;;;-146.50;100.00;59256.41;5072299;27;45428;-79
2023/01/02 07:32:59;;;;;;;;;0.00;0.00;;;;;-146.50;100.00;59256.41;5072480;27;45454;-79
2023/01/02 07:35:24;;;;;;;;;0.00;0.00;;;;;-146.50;100.00;59256.41;5072068;27;46143;-79
2023/01/02 07:37:50;;;;;;;;;0.00;0.00;;;;;-146.50;100.00;59256.41;5072077;28;45581;-79
2023/01/02 07:40:15;;;;;;;;;0.00;0.00;;;;;-146.50;100.00;59256.41;5072178;27;45386;-80
2023/01/02 07:42:41;;;;;;;;;0.00;0.00;;;;;-146.50;100.00;59256.41;5072016;28;45642;-79
2023/01/02 07:45:07;;;;;;;;;0.00;0.00;;;;;-146.50;100.00;59256.41;5071874;27;49678;-77
2023/01/02 07:47:32;;;;;;;;;0.00;0.00;;;;;-146.50;100.00;59256.41;5066335;27;45453;-73
2023/01/02 07:49:58;;;;;;;;;0.33;0.00;;;;;-146.50;100.00;59256.41;5051020;27;45450;-77
2023/01/02 07:52:23;;;;;;;;;0.00;0.00;;;;;-146.50;100.00;59256.41;5060695;27;45478;-77
2023/01/02 07:54:48;;;;;;;;;0.00;0.00;;;;;-146.50;100.00;59256.41;5067736;27;46267;-77
2023/01/02 07:57:14;;;;;;;;;0.00;0.00;;;;;-146.50;100.00;59256.41;5072450;28;45413;-77
2023/01/02 07:59:39;;;;;;;;;0.00;0.00;;;;;-146.50;100.00;59256.41;5074005;28;45365;-78
2023/01/02 08:02:05;;;;;;;;;0.00;0.00;;;;;-146.50;100.00;59256.41;5090247;27;45365;-77
2023/01/02 08:04:30;;;;;;;;;0.00;0.00;;;;;-146.50;100.00;59256.41;5073897;28;45595;-78
2023/01/02 08:06:55;;;;;;;;;0.00;0.00;;;;;-146.50;100.00;59256.41;5073668;28;45492;-79
2023/01/02 08:09:21;;;;;;;;;0.00;0.00;;;;;-146.50;100.00;59256.41;5074218;28;45360;-78
2023/01/02 08:11:46;;;;;;;;;0.00;0.00;;;;;-146.50;100.00;59256.41;5073888;28;45308;-79
2023/01/02 08:14:11;;;;;;;;;0.50;0.50;;;;;-146.50;100.00;59256.41;5075972;27;45505;-78
2023/01/02 08:16:36;;;;;;;;;0.50;0.50;;;;;-146.50;100.00;59256.41;5076326;28;45375;-78
2023/01/02 08:19:02;;;;;;;;;2.00;2.00;;;;;-146.50;100.00;59256.41;5076474;28;46587;-78
2023/01/02 08:21:27;;;;;;;;;2.50;1.25;;;;;-146.50;100.00;59256.41;5077167;27;45517;-79
2023/01/02 08:23:52;;;;;;;;;0.50;0.50;;;;;-146.50;100.00;59256.41;5076916;27;45409;-79
2023/01/02 08:26:19;;;;;;;;;1.00;1.00;;;;;-146.50;100.00;59256.41;5076810;28;45436;-79
2023/01/02 08:28:45;;;;;;;;;0.00;0.00;;;;;-146.50;100.00;59256.41;5075639;28;45398;-79
2023/01/02 08:31:16;;;;;;;;;0.00;0.00;;;;;-146.50;100.00;59256.41;5072781;27;45531;-79
2023/01/02 08:33:42;;;;;;;;;0.00;0.00;;;;;-146.50;100.00;59256.41;5073216;27;47955;-79
2023/01/02 08:36:08;;;;;;;;;0.00;0.00;;;;;-146.50;100.00;59256.41;5076279;27;45619;-79
2023/01/02 08:38:33;;;;;;;;;0.00;0.00;;;;;-146.50;100.00;59256.41;5073033;27;45467;-79
2023/01/02 08:40:59;;;;;;;;;0.00;0.00;;;;;-146.50;100.00;59256.41;5074571;27;45776;-79
2023/01/02 08:43:25;;;;;;;;;0.00;0.00;;;;;-146.50;100.00;59256.41;5078794;27;45363;-79
2023/01/02 08:45:50;;;;;;;;;0.00;0.00;;;;;-146.50;100.00;59256.41;5076159;27;45470;-79
2023/01/02 08:48:16;;;;;;;;;1.75;1.75;;;;;-146.50;100.00;59256.41;5073810;28;45529;-80
2023/01/02 08:50:41;;;;;;;;;1.00;1.00;;;;;-146.50;100.00;59256.41;5076550;28;45401;-80
2023/01/02 08:53:06;;;;;;;;;0.75;0.25;;;;;-146.50;100.00;59256.41;5076995;28;45463;-81
2023/01/02 08:55:32;;;;;;;;;0.00;0.00;;;;;-146.50;100.00;59256.41;5076383;27;45413;-80
2023/01/02 08:57:57;;;;;;;;;0.00;0.00;;;;;-146.50;100.00;59256.41;5076721;28;45476;-80
2023/01/02 09:00:22;;;;;;;;;1.00;1.00;;;;;-146.50;100.00;59256.41;5076691;28;45500;-80
2023/01/02 09:02:48;;;;;;;;;0.00;0.00;;;;;-146.50;100.00;59256.41;5076586;28;45399;-80
2023/01/02 09:05:13;;;;;;;;;0.00;0.00;;;;;-146.50;100.00;59256.41;5076634;27;45454;-81
2023/01/02 09:07:38;;;;;;;;;0.00;0.00;;;;;-146.50;100.00;59256.41;5076958;27;45331;-81
2023/01/02 09:10:04;;;;;;;;;0.00;0.00;;;;;-146.50;100.00;59256.41;5076070;27;45669;-82
2023/01/02 09:12:30;;;;;;;;;0.00;0.00;;;;;-146.50;100.00;59256.41;5076190;28;47312;-80
2023/01/02 09:14:55;;;;;;;;;0.00;0.00;;;;;-146.50;100.00;59256.41;5076707;28;45392;-81
2023/01/02 09:17:20;;;;;;;;;0.00;0.00;;;;;-146.50;100.00;59256.41;5076829;27;45352;-82
2023/01/02 09:19:47;;;;;;;;;0.00;0.00;;;;;-146.50;100.00;59256.41;5076628;27;45460;-81
2023/01/02 09:22:12;;;;;;;;;0.00;0.00;;;;;-146.50;100.00;59256.41;5076187;28;47348;-82
2023/01/02 09:24:38;;;;;;;;;0.00;0.00;;;;;-146.50;100.00;59256.41;5075297;27;45500;-82
2023/01/02 09:27:03;;;;;;;;;0.00;0.00;;;;;-146.50;100.00;59256.41;5076159;28;45473;-83
2023/01/02 09:29:28;;;;;;;;;0.00;0.00;;;;;-146.50;100.00;59256.41;5076398;27;45540;-81
2023/01/02 09:31:54;;;;;;;;;0.00;0.00;;;;;-146.50;100.00;59256.41;5076171;27;46135;-82
2023/01/02 09:34:19;;;;;;;;;0.00;0.00;;;;;-146.50;100.00;59256.41;5076202;27;45418;-81
2023/01/02 09:36:46;;;;;;;;;0.00;0.00;;;;;-146.50;100.00;59256.41;5076479;27;45423;-82
2023/01/02 09:39:12;;;;;;;;;0.00;0.00;;;;;-146.50;100.00;59256.41;5075901;28;45537;-82
2023/01/02 09:41:44;;;;;;;;;0.25;0.25;;;;;-146.50;100.00;59256.41;5075882;28;45464;-81
2023/01/02 09:44:10;;;;;;;;;0.00;0.00;;;;;-146.50;100.00;59256.41;5076433;27;45454;-82
2023/01/02 09:46:48;;;;;;;;;0.00;0.00;;;;;-146.50;100.00;59256.41;5075581;27;45542;-82
2023/01/02 09:49:18;;;;;;;;;0.00;0.00;;;;;-146.50;100.00;59256.41;5073180;28;45359;-82
2023/01/02 09:51:44;;;;;;;;;0.00;0.00;;;;;-146.50;100.00;59256.41;5075519;27;46597;-84
2023/01/02 09:54:17;;;;;;;;;0.00;0.00;;;;;-146.50;100.00;59256.41;5075477;28;45399;-80
2023/01/02 09:56:48;;;;;;;;;0.00;0.00;;;;;-146.50;100.00;59256.41;5076186;28;45320;-83
2023/01/02 09:59:39;;;;;;;;;0.00;0.00;;;;;-146.50;100.00;59256.41;5075700;27;45362;-83
2023/01/02 10:02:05;;;;;;;;;1.00;0.00;;;;;-146.50;100.00;59256.41;5074684;28;45294;-82
2023/01/02 10:04:56;;;;;;;;;0.00;0.00;;;;;-146.50;100.00;59256.41;5075813;28;45440;-83
2023/01/02 10:07:59;;;;;;;;;0.00;0.00;;;;;-146.50;100.00;59256.41;5074143;28;45394;-82
2023/01/02 10:10:51;;;;;;;;;0.00;0.00;;;;;-146.50;100.00;59256.41;5074311;28;45435;-83
2023/01/02 10:13:40;;;;;;;;;0.00;0.00;;;;;-146.50;100.00;59256.41;5073416;28;46145;-82
2023/01/02 10:16:16;;;;;;;;;0.00;0.00;;;;;-146.50;100.00;59256.41;5075230;28;45329;-82
2023/01/02 10:18:48;;;;;;;;;0.00;0.00;;;;;-146.50;100.00;59256.41;5075393;28;45378;-81
2023/01/02 10:21:20;;;;;;;;;0.75;0.75;;;;;-146.50;100.00;59256.41;5076504;28;45320;-83
2023/01/02 10:23:53;;;;;;;;;0.00;0.00;;;;;-146.50;100.00;59256.41;5078115;28;45362;-83
2023/01/02 10:26:22;;;;;;;;;0.00;0.00;;;;;-146.50;100.00;59256.41;5073346;28;45557;-81
2023/01/02 10:28:54;;;;;;;;;1.00;1.00;;;;;-146.50;100.00;59256.41;5075690;28;45419;-80
2023/01/02 10:31:22;;;;;;;;;0.00;0.00;;;;;-146.50;100.00;59256.41;5075754;27;45609;-81
2023/01/02 10:33:59;;;;;;;;;1.00;1.00;;;;;-146.50;100.00;59256.41;5074994;28;45460;-81
2023/01/02 10:36:35;;;;;;;;;1.00;1.00;;;;;-146.50;100.00;59256.41;5088138;27;46242;-81
2023/01/02 10:39:04;;;;;;;;;0.00;0.00;;;;;-146.50;100.00;59256.41;5073100;28;45442;-81
2023/01/02 10:41:31;;;;;;;;;2.00;0.00;;;;;-146.50;100.00;59256.41;5075301;27;45790;-81
2023/01/02 10:44:01;;;;;;;;;1.00;1.00;;;;;-146.50;100.00;59256.41;5074873;28;45531;-82
2023/01/02 10:46:35;;;;;;;;;2.00;2.00;;;;;-146.50;100.00;59256.41;5075728;27;45497;-81
2023/01/02 10:49:06;;;;;;;;;2.00;2.00;;;;;-146.50;100.00;59256.41;5073373;28;45294;-81
2023/01/02 10:51:32;;;;;;;;;2.00;1.00;;;;;-146.50;100.00;59256.41;5074781;28;45482;-82
2023/01/02 10:53:59;;;;;;;;;1.00;1.00;;;;;-146.50;100.00;59256.41;5074567;28;46038;-81
2023/01/02 10:56:25;;;;;;;;;1.00;1.00;;;;;-146.50;100.00;59256.41;5074619;27;45330;-82
2023/01/02 10:58:52;;;;;;;;;1.00;1.00;;;;;-146.50;100.00;59256.41;5075009;28;45326;-80
2023/01/02 11:01:20;;;;;;;;;1.00;1.00;;;;;-146.50;100.00;59256.41;5074690;28;45461;-81
2023/01/02 11:04:10;;;;;;;;;1.00;1.00;;;;;-146.50;100.00;59256.41;5074381;27;45594;-81
2023/01/02 11:06:47;;;;;;;;;0.00;0.00;;;;;-146.50;100.00;59256.41;5074183;28;46338;-80
2023/01/02 11:09:25;;;;;;;;;2.00;1.00;;;;;-146.50;100.00;59256.41;5074340;27;45369;-81
2023/01/02 11:12:07;;;;;;;;;1.00;0.67;;;;;-146.50;100.00;59256.41;5074197;27;45455;-80
2023/01/02 11:14:34;;;;;;;;;1.50;1.50;;;;;-146.50;100.00;59256.41;5072778;28;45627;-81
2023/01/02 11:17:07;;;;;;;;;1.00;1.00;;;;;-146.50;100.00;59256.41;5074653;27;45788;-80
2023/01/02 11:19:41;;;;;;;;;0.00;0.00;;;;;-146.50;100.00;59256.41;5074757;28;45206;-81
2023/01/02 11:22:09;;;;;;;;;0.00;0.00;;;;;-146.50;100.00;59256.41;5074520;28;45510;-81